createdAt,value
2023-02-22T00:00:23.877Z,1.97
2023-02-22T00:02:52.395Z,1.99
2023-02-22T00:05:24.267Z,2.02
2023-02-22T00:07:56.103Z,2.05
2023-02-22T00:10:23.560Z,2.05
2023-02-22T00:12:51.949Z,2.00
2023-02-22T00:15:20.544Z,1.97
2023-02-22T00:17:47.466Z,1.96
2023-02-22T00:20:15.278Z,1.89
2023-02-22T00:22:50.965Z,1.82
2023-02-22T00:25:18.871Z,1.78
2023-02-22T00:27:47.391Z,1.74
2023-02-22T00:30:21.299Z,1.69
2023-02-22T00:32:49.456Z,1.62
2023-02-22T00:35:17.154Z,1.60
2023-02-22T00:37:50.065Z,1.57
2023-02-22T00:40:18.988Z,1.58
2023-02-22T00:42:48.520Z,1.61
2023-02-22T00:45:16.492Z,1.63
2023-02-22T00:47:42.950Z,1.64
2023-02-22T00:50:11.149Z,1.65
2023-02-22T00:52:37.946Z,1.64
2023-02-22T00:55:06.169Z,1.65
2023-02-22T00:57:34.550Z,1.64
2023-02-22T01:00:11.214Z,1.64
2023-02-22T01:02:39.961Z,1.65
2023-02-22T01:05:07.951Z,1.67
2023-02-22T01:07:34.582Z,1.70
2023-02-22T01:10:02.041Z,1.73
2023-02-22T01:12:29.854Z,1.76
2023-02-22T01:14:57.536Z,1.79
2023-02-22T01:17:24.664Z,1.81
2023-02-22T01:19:53.905Z,1.81
2023-02-22T01:22:22.271Z,1.81
2023-02-22T01:24:50.225Z,1.82
2023-02-22T01:27:19.419Z,1.82
2023-02-22T01:29:48.357Z,1.80
2023-02-22T01:32:15.133Z,1.78
2023-02-22T01:34:41.788Z,1.76
2023-02-22T01:37:10.665Z,1.76
2023-02-22T01:39:38.514Z,1.77
2023-02-22T01:42:10.331Z,1.78
2023-02-22T01:44:38.156Z,1.81
2023-02-22T01:47:08.492Z,1.82
2023-02-22T01:49:43.231Z,1.81
2023-02-22T01:52:12.776Z,1.79
2023-02-22T01:54:42.649Z,1.78
2023-02-22T01:57:17.512Z,1.77
2023-02-22T01:59:46.165Z,1.73
2023-02-22T02:02:12.684Z,1.70
2023-02-22T02:04:41.870Z,1.70
2023-02-22T02:07:12.983Z,1.69
2023-02-22T02:10:00.285Z,1.69
2023-02-22T02:12:28.284Z,1.70
2023-02-22T02:15:16.786Z,1.65
2023-02-22T02:17:44.586Z,1.60
2023-02-22T02:20:36.639Z,1.56
2023-02-22T02:23:17.557Z,1.52
2023-02-22T02:26:03.282Z,1.46
2023-02-22T02:28:57.636Z,1.42
2023-02-22T02:32:04.312Z,1.41
2023-02-22T02:34:38.716Z,1.39
2023-02-22T02:37:11.938Z,1.33
2023-02-22T02:39:58.960Z,1.28
2023-02-22T02:42:29.460Z,1.18
2023-02-22T02:45:05.314Z,1.10
2023-02-22T02:47:35.140Z,1.03
2023-02-22T02:50:15.815Z,1.01
2023-02-22T02:52:44.042Z,1.01
2023-02-22T02:55:10.671Z,1.00
2023-02-22T02:57:38.453Z,0.98
2023-02-22T03:00:26.339Z,0.98
2023-02-22T03:03:16.949Z,1.00
2023-02-22T03:17:16.227Z,1.95
2023-02-22T03:19:47.731Z,2.17
2023-02-22T03:22:26.322Z,2.08
2023-02-22T03:25:07.987Z,1.94
2023-02-22T03:27:50.524Z,1.75
2023-02-22T03:30:41.869Z,1.58
2023-02-22T03:33:13.331Z,1.47
2023-02-22T03:35:45.391Z,1.38
2023-02-22T03:38:13.389Z,1.21
2023-02-22T03:40:43.755Z,1.11
2023-02-22T03:43:16.672Z,1.01
2023-02-22T03:45:45.838Z,0.88
2023-02-22T03:48:26.191Z,0.83
2023-02-22T03:50:54.160Z,0.78
2023-02-22T03:53:27.241Z,0.74
2023-02-22T03:55:55.621Z,0.68
2023-02-22T03:58:24.068Z,0.64
2023-02-22T04:00:53.314Z,0.65
2023-02-22T04:03:24.146Z,0.66
2023-02-22T04:05:52.408Z,0.64
2023-02-22T04:08:21.090Z,0.64
2023-02-22T04:10:49.301Z,0.66
2023-02-22T04:13:20.510Z,0.69
2023-02-22T04:15:50.586Z,0.72
2023-02-22T04:18:19.190Z,0.73
2023-02-22T04:20:52.929Z,0.61
2023-02-22T04:23:35.405Z,0.45
2023-02-22T04:26:03.640Z,0.32
2023-02-22T04:28:31.843Z,0.26
2023-02-22T04:31:08.884Z,0.22
2023-02-22T04:33:38.086Z,0.19
2023-02-22T04:36:06.627Z,0.20
2023-02-22T04:38:36.827Z,0.26
2023-02-22T04:41:05.254Z,0.26
2023-02-22T04:43:33.706Z,0.26
2023-02-22T04:46:21.962Z,0.27
2023-02-22T04:48:57.698Z,0.29
2023-02-22T04:51:28.360Z,0.26
2023-02-22T04:54:17.219Z,0.23
2023-02-22T04:56:48.658Z,0.19
2023-02-22T04:59:25.759Z,0.10
2023-02-22T05:02:00.934Z,0.01
2023-02-22T05:04:29.152Z,-0.03
2023-02-22T05:07:00.108Z,-0.03
2023-02-22T05:09:27.972Z,-0.09
2023-02-22T05:11:57.017Z,-0.24
2023-02-22T05:14:27.163Z,-0.23
2023-02-22T05:16:56.860Z,-0.16
2023-02-22T05:19:24.957Z,-0.10
2023-02-22T05:21:53.105Z,-0.15
2023-02-22T05:24:21.768Z,-0.16
2023-02-22T05:26:51.343Z,-0.13
2023-02-22T05:29:19.650Z,-0.10
2023-02-22T05:31:48.921Z,-0.07
2023-02-22T05:34:17.190Z,-0.02
2023-02-22T05:36:46.517Z,0.02
2023-02-22T05:39:15.901Z,0.06
2023-02-22T05:41:43.991Z,0.10
2023-02-22T05:44:11.900Z,0.12
2023-02-22T05:46:40.316Z,0.12
2023-02-22T05:49:08.907Z,0.12
2023-02-22T05:51:37.783Z,0.14
2023-02-22T05:54:05.920Z,0.16
2023-02-22T05:56:33.812Z,0.21
2023-02-22T05:59:02.172Z,0.26
2023-02-22T06:01:31.818Z,0.30
2023-02-22T06:03:59.823Z,0.32
2023-02-22T06:06:27.637Z,0.38
2023-02-22T06:08:55.964Z,0.39
2023-02-22T06:11:24.629Z,0.41
2023-02-22T06:13:59.793Z,0.46
2023-02-22T06:16:28.054Z,0.48
2023-02-22T06:18:56.388Z,0.51
2023-02-22T06:21:24.312Z,0.55
2023-02-22T06:23:52.375Z,0.59
2023-02-22T06:26:20.333Z,0.61
2023-02-22T06:28:48.683Z,0.63
2023-02-22T06:31:21.081Z,0.66
2023-02-22T06:33:49.249Z,0.64
2023-02-22T06:36:19.279Z,0.60
2023-02-22T06:38:47.270Z,0.59
2023-02-22T06:41:15.975Z,0.64
2023-02-22T06:43:44.669Z,0.68
2023-02-22T06:46:12.660Z,0.68
2023-02-22T06:48:40.721Z,0.67
2023-02-22T06:51:11.123Z,0.69
2023-02-22T06:53:40.742Z,0.71
2023-02-22T06:56:08.888Z,0.75
2023-02-22T06:58:37.178Z,0.87
2023-02-22T07:01:07.810Z,0.99
2023-02-22T07:03:35.991Z,0.91
2023-02-22T07:06:04.453Z,0.69
2023-02-22T07:08:38.959Z,0.41
2023-02-22T07:11:07.277Z,0.39
2023-02-22T07:13:37.745Z,0.56
2023-02-22T07:16:09.203Z,0.72
2023-02-22T07:18:37.272Z,0.92
2023-02-22T07:21:05.568Z,1.12
2023-02-22T07:23:34.323Z,1.18
2023-02-22T07:26:02.853Z,1.15
2023-02-22T07:28:31.628Z,1.10
2023-02-22T07:31:01.492Z,1.12
2023-02-22T07:33:29.516Z,1.25
2023-02-22T07:35:57.477Z,1.39
2023-02-22T07:38:25.256Z,1.45
2023-02-22T07:40:53.570Z,1.44
2023-02-22T07:43:23.348Z,1.42
2023-02-22T07:45:55.580Z,1.43
2023-02-22T07:48:26.981Z,1.45
2023-02-22T07:50:57.470Z,1.52
2023-02-22T07:53:30.427Z,1.55
2023-02-22T07:56:05.468Z,1.62
2023-02-22T07:58:35.523Z,1.49
2023-02-22T08:01:06.780Z,1.29
2023-02-22T08:03:36.872Z,1.14
2023-02-22T08:06:06.344Z,1.12
2023-02-22T08:08:35.087Z,0.98
2023-02-22T08:11:03.827Z,0.93
2023-02-22T08:13:32.977Z,0.78
2023-02-22T08:16:01.005Z,0.67
2023-02-22T08:18:29.125Z,0.70
2023-02-22T08:21:00.136Z,0.70
2023-02-22T08:23:28.627Z,0.84
2023-02-22T08:25:56.801Z,1.13
2023-02-22T08:28:25.688Z,1.27
2023-02-22T08:30:53.931Z,1.21
2023-02-22T08:33:25.894Z,1.20
2023-02-22T08:35:54.352Z,1.18
2023-02-22T08:38:27.236Z,1.11
2023-02-22T08:40:55.203Z,1.11
2023-02-22T08:43:23.277Z,1.02
2023-02-22T08:45:55.054Z,0.92
2023-02-22T08:48:25.444Z,0.98
2023-02-22T08:50:54.954Z,0.92
2023-02-22T08:53:23.381Z,0.89
2023-02-22T08:55:52.713Z,0.94
2023-02-22T08:58:21.217Z,1.00
2023-02-22T09:00:49.265Z,1.10
2023-02-22T09:03:19.707Z,1.20
2023-02-22T09:05:48.013Z,1.27
2023-02-22T09:08:17.604Z,1.28
2023-02-22T09:10:45.930Z,1.21
2023-02-22T09:13:16.920Z,1.07
2023-02-22T09:15:45.321Z,1.09
2023-02-22T09:18:14.734Z,1.05
2023-02-22T09:20:43.229Z,1.05
2023-02-22T09:23:11.165Z,1.13
2023-02-22T09:25:43.391Z,1.18
2023-02-22T09:28:11.827Z,1.24
2023-02-22T09:30:39.985Z,1.26
2023-02-22T09:33:11.891Z,1.17
2023-02-22T09:35:46.418Z,1.16
2023-02-22T09:38:24.891Z,1.04
2023-02-22T09:40:57.141Z,0.88
2023-02-22T09:43:45.176Z,0.87
2023-02-22T09:46:34.663Z,0.91
2023-02-22T09:49:22.816Z,1.04
2023-02-22T09:51:58.888Z,1.20
2023-02-22T09:54:34.338Z,1.29
2023-02-22T09:57:05.024Z,1.40
2023-02-22T09:59:43.347Z,1.51
2023-02-22T10:02:20.035Z,1.60
2023-02-22T10:05:05.829Z,1.66
2023-02-22T10:07:40.911Z,1.70
2023-02-22T10:10:15.787Z,1.75
2023-02-22T10:13:09.320Z,1.83
2023-02-22T10:16:02.742Z,1.82
2023-02-22T10:18:49.839Z,1.53
2023-02-22T10:21:43.719Z,1.47
2023-02-22T10:24:47.548Z,1.55
2023-02-22T10:27:39.037Z,1.66
2023-02-22T10:30:25.120Z,1.72
2023-02-22T10:33:03.481Z,1.64
2023-02-22T10:35:33.701Z,1.65
2023-02-22T10:38:22.018Z,1.77
2023-02-22T10:41:03.505Z,1.89
2023-02-22T10:43:32.801Z,1.90
2023-02-22T10:46:02.931Z,1.89
2023-02-22T10:48:31.607Z,1.95
2023-02-22T10:51:02.157Z,2.00
2023-02-22T10:53:33.944Z,2.04
2023-02-22T10:56:10.115Z,2.08
2023-02-22T10:58:48.353Z,2.10
2023-02-22T11:01:20.723Z,2.12
2023-02-22T11:04:01.313Z,2.10
2023-02-22T11:06:29.847Z,2.05
2023-02-22T11:09:06.032Z,1.99
2023-02-22T11:11:34.147Z,1.83
2023-02-22T11:14:06.790Z,1.70
2023-02-22T11:16:39.077Z,1.69
2023-02-22T11:19:18.168Z,1.78
2023-02-22T11:21:47.581Z,1.88
2023-02-22T11:24:15.727Z,1.99
2023-02-22T11:26:46.161Z,1.95
2023-02-22T11:29:18.664Z,1.92
2023-02-22T11:31:49.391Z,2.00
2023-02-22T11:34:37.994Z,2.06
2023-02-22T11:37:17.848Z,2.10
2023-02-22T11:39:45.933Z,2.11
2023-02-22T11:42:24.205Z,2.11
2023-02-22T11:45:17.517Z,2.05
2023-02-22T11:47:59.933Z,2.01
2023-02-22T11:50:32.029Z,1.92
2023-02-22T11:53:32.310Z,1.90
2023-02-22T11:56:14.047Z,1.93
2023-02-22T11:58:45.865Z,1.97
2023-02-22T12:01:41.459Z,2.02
2023-02-22T12:04:27.963Z,2.09
2023-02-22T12:07:20.923Z,2.11
2023-02-22T12:10:05.789Z,2.15
2023-02-22T12:13:03.913Z,2.20
2023-02-22T12:15:38.167Z,2.24
2023-02-22T12:18:17.145Z,2.25
2023-02-22T12:20:59.000Z,2.26
2023-02-22T12:23:40.681Z,2.30
2023-02-22T12:26:16.838Z,2.34
2023-02-22T12:29:00.741Z,2.40
2023-02-22T12:31:33.903Z,2.45
2023-02-22T12:34:11.862Z,2.47
2023-02-22T12:36:43.898Z,2.52
2023-02-22T12:39:23.334Z,2.54
2023-02-22T12:41:54.621Z,2.48
2023-02-22T12:44:33.690Z,2.48
2023-02-22T12:47:05.419Z,2.47
2023-02-22T12:49:56.175Z,2.45
2023-02-22T12:52:42.597Z,2.45
2023-02-22T12:55:18.595Z,2.47
2023-02-22T12:58:38.200Z,2.49
2023-02-22T13:01:27.460Z,2.47
2023-02-22T13:03:56.038Z,2.46
2023-02-22T13:06:49.247Z,2.47
2023-02-22T13:09:45.614Z,2.51
2023-02-22T13:12:29.441Z,2.52
2023-02-22T13:15:13.026Z,2.49
2023-02-22T13:18:01.308Z,2.48
2023-02-22T13:20:37.414Z,2.46
2023-02-22T13:23:12.394Z,2.45
2023-02-22T13:25:48.449Z,2.43
2023-02-22T13:28:21.889Z,2.37
2023-02-22T13:31:03.661Z,2.31
2023-02-22T13:34:23.614Z,2.30
2023-02-22T13:37:10.131Z,2.26
2023-02-22T13:39:46.134Z,2.20
2023-02-22T13:42:22.710Z,2.18
2023-02-22T13:45:09.706Z,2.20
2023-02-22T13:47:55.912Z,2.23
2023-02-22T13:50:26.795Z,2.23
2023-02-22T13:52:55.409Z,2.24
2023-02-22T13:55:28.168Z,2.23
2023-02-22T13:58:09.245Z,2.20
2023-02-22T14:00:51.480Z,2.14
2023-02-22T14:03:41.335Z,2.06
2023-02-22T14:06:37.876Z,1.98
2023-02-22T14:09:09.939Z,1.88
2023-02-22T14:11:43.326Z,1.81
2023-02-22T14:14:14.735Z,1.79
2023-02-22T14:16:42.996Z,1.77
2023-02-22T14:19:23.060Z,1.76
2023-02-22T14:22:05.860Z,1.76
2023-02-22T14:24:44.936Z,1.77
2023-02-22T14:27:13.286Z,1.74
2023-02-22T14:29:57.420Z,1.73
2023-02-22T14:32:33.559Z,1.70
2023-02-22T14:35:26.530Z,1.68
2023-02-22T14:37:58.367Z,1.65
2023-02-22T14:40:27.143Z,1.64
2023-02-22T14:43:12.973Z,1.60
2023-02-22T14:45:53.150Z,1.57
2023-02-22T14:48:40.038Z,1.54
2023-02-22T14:51:23.204Z,1.52
2023-02-22T14:53:54.300Z,1.48
2023-02-22T14:56:24.216Z,1.42
2023-02-22T14:58:59.535Z,1.37
2023-02-22T15:04:28.418Z,1.31
2023-02-22T15:06:58.244Z,1.32
2023-02-22T15:09:33.643Z,1.31
2023-02-22T15:12:07.951Z,1.29
2023-02-22T15:14:37.968Z,1.29
2023-02-22T15:17:14.020Z,1.28
2023-02-22T15:19:42.101Z,1.27
2023-02-22T18:09:30.196Z,0.20
2023-02-22T18:11:57.292Z,0.08
2023-02-22T18:14:24.051Z,0.01
2023-02-22T18:16:50.633Z,-0.09
2023-02-22T18:19:19.121Z,-0.17
2023-02-22T18:21:46.062Z,-0.26
2023-02-22T18:24:13.009Z,-0.36
2023-02-22T18:26:40.005Z,-0.43
2023-02-22T18:29:06.562Z,-0.46
2023-02-22T18:31:33.193Z,-0.44
2023-02-22T18:33:59.832Z,-0.46
2023-02-22T18:36:26.516Z,-0.48
2023-02-22T18:38:53.704Z,-0.51
2023-02-22T18:41:24.441Z,-0.53
2023-02-22T18:43:51.210Z,-0.58
2023-02-22T18:46:19.317Z,-0.59
2023-02-22T18:48:47.315Z,-0.58
2023-02-22T18:51:16.864Z,-0.54
2023-02-22T18:53:47.562Z,-0.53
2023-02-22T18:56:21.317Z,-0.50
2023-02-22T18:58:47.983Z,-0.55
2023-02-22T19:01:17.069Z,-0.51
2023-02-22T19:03:46.396Z,-0.47
2023-02-22T19:06:13.882Z,-0.49
2023-02-22T19:08:41.955Z,-0.51
2023-02-22T19:11:18.407Z,-0.52
2023-02-22T19:13:46.102Z,-0.50
2023-02-22T19:16:19.280Z,-0.48
2023-02-22T19:18:47.069Z,-0.52
2023-02-22T19:21:14.069Z,-0.53
2023-02-22T19:23:44.954Z,-0.54
2023-02-22T19:26:25.255Z,-0.61
2023-02-22T19:28:53.628Z,-0.61
2023-02-22T19:31:30.741Z,-0.57
2023-02-22T19:34:09.232Z,-0.59
2023-02-22T19:36:37.684Z,-0.57
2023-02-22T19:39:07.477Z,-0.57
2023-02-22T19:41:35.911Z,-0.59
2023-02-22T19:44:03.293Z,-0.66
2023-02-22T19:46:30.529Z,-0.67
2023-02-22T19:48:57.492Z,-0.63
2023-02-22T19:51:25.850Z,-0.67
2023-02-22T19:53:52.818Z,-0.70
2023-02-22T19:56:20.029Z,-0.77
2023-02-22T19:58:49.036Z,-0.76
2023-02-22T20:01:22.587Z,-0.74
2023-02-22T20:04:05.046Z,-0.70
2023-02-22T20:06:34.453Z,-0.63
2023-02-22T20:09:01.009Z,-0.59
2023-02-22T20:11:28.063Z,-0.55
2023-02-22T20:13:59.900Z,-0.50
2023-02-22T20:16:26.702Z,-0.44
2023-02-22T20:18:54.339Z,-0.38
2023-02-22T20:21:30.162Z,-0.35
2023-02-22T20:24:03.863Z,-0.30
2023-02-22T20:26:31.293Z,-0.26
2023-02-22T20:28:58.309Z,-0.24
2023-02-22T20:31:25.139Z,-0.23
2023-02-22T20:33:55.440Z,-0.20
2023-02-22T20:36:22.559Z,-0.18
2023-02-22T20:38:53.613Z,-0.16
2023-02-22T20:41:26.140Z,-0.12
2023-02-22T20:43:54.427Z,-0.11
2023-02-22T20:46:22.714Z,-0.10
2023-02-22T20:48:52.779Z,-0.08
2023-02-22T20:51:19.713Z,-0.06
2023-02-22T20:53:46.981Z,-0.04
2023-02-22T20:56:14.446Z,-0.03
2023-02-22T20:58:41.233Z,-0.02
2023-02-22T21:01:09.928Z,-0.03
2023-02-22T21:03:37.304Z,-0.03
2023-02-22T21:06:04.517Z,-0.05
2023-02-22T21:08:31.429Z,-0.09
2023-02-22T21:10:58.769Z,-0.11
2023-02-22T21:13:26.133Z,-0.18
2023-02-22T21:15:52.762Z,-0.31
2023-02-22T21:18:20.123Z,-0.36
2023-02-22T21:20:47.795Z,-0.39
2023-02-22T21:23:14.992Z,-0.45
2023-02-22T21:25:52.393Z,-0.47
2023-02-22T21:28:18.871Z,-0.52
2023-02-22T21:30:46.621Z,-0.66
2023-02-22T21:33:16.638Z,-0.85
2023-02-22T21:35:46.355Z,-1.07
2023-02-22T21:38:17.126Z,-1.21
2023-02-22T21:40:46.930Z,-1.36
2023-02-22T21:43:13.668Z,-1.54
2023-02-22T21:45:40.125Z,-1.69
2023-02-22T21:48:06.697Z,-1.84
2023-02-22T21:50:37.041Z,-1.97
2023-02-22T21:53:05.237Z,-2.04
2023-02-22T21:55:33.182Z,-2.03
2023-02-22T21:58:00.467Z,-2.07
2023-02-22T22:00:28.621Z,-2.15
2023-02-22T22:03:07.082Z,-2.25
2023-02-22T22:05:33.946Z,-2.37
2023-02-22T22:08:04.719Z,-2.43
2023-02-22T22:10:32.535Z,-2.45
2023-02-22T22:12:59.215Z,-2.40
2023-02-22T22:15:27.327Z,-2.33
2023-02-22T22:17:56.570Z,-2.27
2023-02-22T22:20:23.296Z,-2.26
2023-02-22T22:22:49.766Z,-2.27
2023-02-22T22:25:16.986Z,-2.29
2023-02-22T22:27:43.544Z,-2.40
2023-02-22T22:30:12.300Z,-2.54
2023-02-22T22:32:39.676Z,-2.60
2023-02-22T22:35:13.871Z,-2.61
2023-02-22T22:37:41.690Z,-2.63
2023-02-22T22:40:15.146Z,-2.68
2023-02-22T22:42:42.073Z,-2.73
2023-02-22T22:45:12.505Z,-2.78
2023-02-22T22:47:46.742Z,-2.92
2023-02-22T22:50:25.669Z,-3.00
2023-02-22T22:52:54.946Z,-2.97
2023-02-22T22:55:23.604Z,-2.92
2023-02-22T22:57:51.230Z,-2.88
2023-02-22T23:00:27.122Z,-2.89
2023-02-22T23:02:56.644Z,-2.91
2023-02-22T23:05:30.394Z,-2.89
2023-02-22T23:07:57.315Z,-2.84
2023-02-22T23:10:26.569Z,-2.87
2023-02-22T23:12:55.786Z,-2.86
2023-02-22T23:15:24.008Z,-2.85
2023-02-22T23:17:55.341Z,-2.85
2023-02-22T23:20:25.570Z,-2.83
2023-02-22T23:22:53.484Z,-2.82
2023-02-22T23:25:21.590Z,-2.81
2023-02-22T23:27:48.924Z,-2.78
2023-02-22T23:30:18.064Z,-2.80
2023-02-22T23:32:48.890Z,-2.84
2023-02-22T23:35:15.829Z,-2.87
2023-02-22T23:37:42.464Z,-2.95
2023-02-22T23:40:16.253Z,-2.97
2023-02-22T23:42:49.849Z,-2.97
2023-02-22T23:45:23.164Z,-2.96
2023-02-22T23:47:54.202Z,-3.00
2023-02-22T23:50:23.106Z,-3.02
2023-02-22T23:52:56.224Z,-3.01
2023-02-22T23:55:30.823Z,-3.04
2023-02-22T23:57:58.598Z,-3.06
